createdAt,value
2022-09-10T00:03:22.031Z,64.99
2022-09-10T00:08:24.770Z,65.32
2022-09-10T00:13:27.094Z,65.21
2022-09-10T00:18:30.056Z,65.23
2022-09-10T00:23:32.867Z,65.34
2022-09-10T00:28:35.523Z,64.73
2022-09-10T00:33:38.198Z,64.54
2022-09-10T00:38:40.567Z,64.95
2022-09-10T00:44:00.858Z,64.61
2022-09-10T00:49:11.553Z,64.54
2022-09-10T00:54:17.901Z,64.54
2022-09-10T00:59:24.192Z,64.66
2022-09-10T01:04:27.843Z,64.75
2022-09-10T01:09:30.357Z,65.18
2022-09-10T01:15:25.149Z,65.10
2022-09-10T01:20:51.765Z,65.48
2022-09-10T01:26:15.017Z,64.95
2022-09-10T01:31:32.256Z,65.53
2022-09-10T01:36:39.605Z,65.47
2022-09-10T01:41:42.045Z,65.45
2022-09-10T01:46:59.674Z,65.23
2022-09-10T01:52:29.159Z,65.45
2022-09-10T01:57:47.486Z,65.81
2022-09-10T02:03:15.925Z,66.03
2022-09-10T02:08:24.109Z,66.15
2022-09-10T02:13:30.225Z,66.09
2022-09-10T02:18:33.994Z,66.62
2022-09-10T02:23:42.207Z,66.78
2022-09-10T02:28:45.207Z,66.30
2022-09-10T02:33:47.554Z,66.87
2022-09-10T02:38:49.907Z,66.51
2022-09-10T02:43:53.222Z,67.09
2022-09-10T02:48:56.198Z,67.12
2022-09-10T02:53:58.721Z,67.10
2022-09-10T02:59:01.166Z,67.35
2022-09-10T03:04:03.903Z,67.71
2022-09-10T03:09:06.310Z,67.65
2022-09-10T03:14:11.287Z,68.06
2022-09-10T03:19:14.695Z,68.19
2022-09-10T03:24:17.051Z,68.05
2022-09-10T03:29:19.438Z,67.73
2022-09-10T03:34:21.924Z,67.33
2022-09-10T03:39:24.412Z,66.89
2022-09-10T03:44:26.867Z,66.66
2022-09-10T03:49:29.583Z,66.36
2022-09-10T03:54:31.964Z,65.93
2022-09-10T03:59:34.980Z,65.67
2022-09-10T04:04:40.196Z,65.68
2022-09-10T04:09:42.519Z,65.83
2022-09-10T04:14:46.017Z,67.07
2022-09-10T04:19:48.319Z,67.55
2022-09-10T04:24:50.744Z,67.56
2022-09-10T04:29:53.600Z,67.46
2022-09-10T04:34:56.002Z,67.17
2022-09-10T04:40:02.101Z,67.30
2022-09-10T04:45:05.398Z,67.47
2022-09-10T04:50:08.525Z,67.27
2022-09-10T04:55:12.337Z,66.90
2022-09-10T05:00:15.062Z,66.85
2022-09-10T05:05:17.358Z,66.77
2022-09-10T05:10:21.176Z,66.91
2022-09-10T05:15:23.515Z,66.41
2022-09-10T05:20:28.131Z,66.34
2022-09-10T05:25:30.814Z,66.07
2022-09-10T05:30:33.396Z,66.14
2022-09-10T05:35:36.223Z,65.82
2022-09-10T05:40:38.967Z,65.65
2022-09-10T05:45:42.018Z,65.82
2022-09-10T05:50:46.077Z,64.88
2022-09-10T05:55:49.164Z,64.51
2022-09-10T06:00:52.450Z,64.71
2022-09-10T06:05:56.360Z,64.05
2022-09-10T06:11:01.063Z,63.75
2022-09-10T06:16:03.839Z,63.48
2022-09-10T06:21:14.221Z,63.13
2022-09-10T06:26:18.979Z,63.02
2022-09-10T06:31:21.274Z,62.58
2022-09-10T06:36:23.726Z,62.78
2022-09-10T06:41:27.345Z,62.75
2022-09-10T06:47:10.646Z,62.22
2022-09-10T06:51:52.179Z,62.06
2022-09-10T06:56:54.647Z,61.24
2022-09-10T07:01:57.310Z,61.12
2022-09-10T07:07:00.307Z,60.25
2022-09-10T07:12:05.362Z,60.36
2022-09-10T07:17:07.791Z,60.09
2022-09-10T07:22:10.329Z,59.68
2022-09-10T07:27:12.846Z,58.91
2022-09-10T07:32:15.353Z,58.74
2022-09-10T07:37:17.979Z,58.26
2022-09-10T07:42:20.536Z,57.94
2022-09-10T07:47:24.460Z,57.26
2022-09-10T07:52:27.061Z,57.32
2022-09-10T07:57:32.662Z,56.71
2022-09-10T08:02:35.333Z,56.07
2022-09-10T08:07:41.737Z,55.03
2022-09-10T08:12:44.153Z,53.85
2022-09-10T08:17:46.538Z,52.43
2022-09-10T08:22:51.722Z,51.32
2022-09-10T08:27:55.493Z,51.24
2022-09-10T08:33:01.453Z,49.82
2022-09-10T08:38:04.376Z,49.70
2022-09-10T08:43:09.856Z,49.58
2022-09-10T08:48:21.528Z,48.99
2022-09-10T08:53:39.944Z,47.94
2022-09-10T08:58:50.283Z,47.19
2022-09-10T09:03:55.773Z,46.97
2022-09-10T09:09:02.349Z,46.08
2022-09-10T09:14:43.400Z,45.84
2022-09-10T09:20:14.665Z,45.66
2022-09-10T09:25:39.460Z,44.74
2022-09-10T09:30:50.158Z,44.09
2022-09-10T09:36:03.558Z,43.73
2022-09-10T09:41:18.740Z,43.27
2022-09-10T09:46:23.008Z,43.22
2022-09-10T09:51:25.910Z,42.40
2022-09-10T09:56:37.974Z,42.21
2022-09-10T10:01:43.366Z,42.03
2022-09-10T10:06:48.210Z,41.29
2022-09-10T10:11:59.181Z,40.83
2022-09-10T10:17:02.478Z,40.70
2022-09-10T10:22:26.250Z,40.91
2022-09-10T10:27:58.286Z,40.32
2022-09-10T10:33:03.940Z,40.46
2022-09-10T10:38:33.085Z,39.94
2022-09-10T10:43:56.971Z,38.60
2022-09-10T10:49:28.102Z,38.33
2022-09-10T10:54:54.568Z,38.96
2022-09-10T11:00:07.975Z,38.26
2022-09-10T11:05:36.028Z,37.54
2022-09-10T11:10:55.153Z,36.32
2022-09-10T11:16:09.620Z,36.62
2022-09-10T11:21:30.505Z,36.68
2022-09-10T11:26:54.661Z,36.70
2022-09-10T11:32:29.373Z,36.80
2022-09-10T11:38:08.348Z,37.01
2022-09-10T11:43:42.877Z,35.26
2022-09-10T11:49:04.046Z,34.87
2022-09-10T11:54:15.367Z,34.78
2022-09-10T11:59:29.492Z,34.43
2022-09-10T12:04:56.150Z,34.21
2022-09-10T12:10:19.325Z,31.98
2022-09-10T12:15:24.547Z,31.37
2022-09-10T12:20:32.654Z,31.25
2022-09-10T12:25:35.632Z,31.09
2022-09-10T12:30:38.218Z,31.51
2022-09-10T12:35:50.048Z,30.81
2022-09-10T12:40:52.903Z,31.14
2022-09-10T12:46:18.722Z,30.26
2022-09-10T12:51:32.778Z,30.23
2022-09-10T12:56:47.316Z,30.50
2022-09-10T13:01:52.522Z,31.03
2022-09-10T13:07:00.330Z,31.04
2022-09-10T13:12:15.479Z,30.90
2022-09-10T13:18:00.194Z,29.90
2022-09-10T13:23:06.558Z,29.43
2022-09-10T13:28:30.587Z,29.21
2022-09-10T13:33:37.521Z,29.06
2022-09-10T13:39:10.310Z,29.38
2022-09-10T13:44:56.491Z,28.66
2022-09-10T13:50:06.602Z,28.79
2022-09-10T13:55:09.600Z,28.54
2022-09-10T14:00:18.281Z,28.54
2022-09-10T14:05:47.426Z,28.81
2022-09-10T14:11:14.026Z,28.98
2022-09-10T14:16:30.090Z,28.87
2022-09-10T14:21:33.348Z,28.59
2022-09-10T14:26:36.396Z,28.18
2022-09-10T14:31:39.342Z,27.81
2022-09-10T14:36:41.823Z,27.37
2022-09-10T14:41:49.403Z,27.06
2022-09-10T14:46:58.065Z,26.57
2022-09-10T14:52:02.377Z,26.09
2022-09-10T14:57:10.520Z,25.41
2022-09-10T15:02:22.311Z,25.00
2022-09-10T15:07:24.871Z,25.09
2022-09-10T15:12:29.869Z,24.45
2022-09-10T15:17:32.526Z,23.82
2022-09-10T15:22:35.073Z,24.66
2022-09-10T15:27:37.635Z,25.66
2022-09-10T15:32:39.943Z,25.43
2022-09-10T15:37:42.305Z,25.64
2022-09-10T15:42:44.740Z,26.77
2022-09-10T15:47:47.214Z,26.64
2022-09-10T15:52:51.577Z,27.27
2022-09-10T15:57:58.673Z,29.03
2022-09-10T16:03:03.533Z,30.02
2022-09-10T16:08:06.215Z,30.38
2022-09-10T16:13:08.728Z,30.43
2022-09-10T16:18:12.061Z,30.56
2022-09-10T16:23:14.526Z,31.54
2022-09-10T16:28:19.930Z,32.06
2022-09-10T16:33:22.343Z,32.73
2022-09-10T16:38:33.247Z,33.09
2022-09-10T16:43:38.063Z,33.75
2022-09-10T16:48:43.474Z,33.79
2022-09-10T16:53:49.205Z,34.60
2022-09-10T16:58:52.129Z,34.86
2022-09-10T17:03:57.790Z,35.32
2022-09-10T17:09:01.823Z,35.96
2022-09-10T17:14:04.573Z,36.35
2022-09-10T17:19:11.599Z,37.07
2022-09-10T17:24:14.232Z,37.28
2022-09-10T17:29:19.802Z,37.29
2022-09-10T17:34:24.865Z,37.81
2022-09-10T17:39:30.213Z,38.27
2022-09-10T17:44:32.582Z,38.58
2022-09-10T17:49:38.379Z,38.62
2022-09-10T17:54:41.534Z,39.44
2022-09-10T17:59:44.323Z,39.20
2022-09-10T18:04:50.759Z,39.18
2022-09-10T18:09:53.857Z,39.21
2022-09-10T18:14:56.508Z,40.93
2022-09-10T18:20:03.291Z,42.53
2022-09-10T18:25:07.244Z,43.56
2022-09-10T18:30:10.744Z,44.37
2022-09-10T18:35:13.304Z,44.70
2022-09-10T18:40:16.067Z,45.43
2022-09-10T18:45:18.543Z,45.58
2022-09-10T18:50:21.593Z,46.07
2022-09-10T18:55:24.010Z,47.08
2022-09-10T19:00:26.738Z,47.37
2022-09-10T19:05:29.052Z,47.89
2022-09-10T19:10:31.704Z,48.03
2022-09-10T19:15:38.828Z,48.33
2022-09-10T19:20:42.037Z,48.65
2022-09-10T19:25:52.840Z,49.35
2022-09-10T19:30:55.706Z,49.49
2022-09-10T19:36:03.715Z,50.05
2022-09-10T19:41:18.078Z,50.43
2022-09-10T19:46:32.555Z,50.95
2022-09-10T19:51:37.964Z,50.77
2022-09-10T19:56:43.141Z,51.13
2022-09-10T20:01:46.586Z,51.06
2022-09-10T20:06:52.867Z,51.55
2022-09-10T20:12:19.196Z,51.78
2022-09-10T20:17:21.589Z,51.52
2022-09-10T20:22:24.627Z,51.67
2022-09-10T20:27:28.322Z,51.77
2022-09-10T20:32:30.859Z,52.09
2022-09-10T20:37:41.901Z,52.14
2022-09-10T20:42:53.710Z,52.19
2022-09-10T20:47:57.750Z,52.47
2022-09-10T20:53:13.129Z,52.45
2022-09-10T20:58:17.804Z,52.10
2022-09-10T21:03:20.630Z,51.47
2022-09-10T21:08:25.187Z,51.16
2022-09-10T21:13:28.611Z,50.97
2022-09-10T21:18:31.019Z,51.22
2022-09-10T21:23:33.929Z,51.41
2022-09-10T21:28:36.394Z,49.96
2022-09-10T21:33:39.504Z,45.91
2022-09-10T21:38:42.619Z,43.19
2022-09-10T21:43:47.574Z,41.35
2022-09-10T21:48:50.000Z,40.49
2022-09-10T21:53:58.342Z,40.37
2022-09-10T21:59:01.455Z,40.60
2022-09-10T22:04:04.620Z,40.21
2022-09-10T22:09:10.433Z,39.55
2022-09-10T22:14:15.502Z,39.68
2022-09-10T22:19:23.888Z,39.28
2022-09-10T22:24:26.639Z,40.11
2022-09-10T22:29:29.856Z,39.27
2022-09-10T22:34:32.324Z,38.94
2022-09-10T22:39:37.382Z,38.18
2022-09-10T22:44:39.753Z,37.82
2022-09-10T22:49:42.128Z,38.17
2022-09-10T22:54:45.694Z,38.06
2022-09-10T22:59:48.079Z,37.82
2022-09-10T23:04:51.495Z,38.08
2022-09-10T23:09:53.920Z,38.19
2022-09-10T23:14:57.365Z,38.15
2022-09-10T23:19:59.972Z,37.88
2022-09-10T23:25:03.571Z,37.40
2022-09-10T23:30:06.647Z,37.53
2022-09-10T23:35:09.780Z,37.58
2022-09-10T23:40:14.001Z,37.69
2022-09-10T23:45:16.504Z,37.81
2022-09-10T23:50:18.915Z,38.25
2022-09-10T23:55:21.323Z,37.75
